Flight Track Log - Related Links

Times and Time Zones

All times are in EDT time to prevent confusion due to time zone crossing. See the GJS3707 flight status page for this flight to view local times or setup timezone preferences in your user account.

Time Position Orientation Groundspeed Altitude Reporting Facility
EDT Latitude Longitude Course Direction KTS MPH feet Rate Location/Type
Wed 03:10:19 PM 43.6133 -116.3769 295° West 232 267 6,700  Level Salt Lake Center
Wed 03:11:00 PM 43.6358 -115.6920 82° East  Level FlightAware Approximate
Wed 03:11:21 PM 43.6658 -116.4483 315° West 281 323 8,300  Level Salt Lake Center
Wed 03:12:00 PM 43.6615 -115.5155 65° Northeast  Level FlightAware Approximate
Wed 03:12:23 PM 43.7258 -116.3833 38° Northeast 297 342 10,100  Level Salt Lake Center
Wed 03:13:00 PM 43.6774 -115.3369 81° East  Level FlightAware Approximate
Wed 03:13:25 PM 43.7386 -116.2522 82° East 307 353 11,600  Level Salt Lake Center
Wed 03:14:00 PM 43.7080 -115.1619 81° East  Level FlightAware Approximate
Wed 03:14:27 PM 43.7517 -116.1253 82° East 345 397 12,600  Level Salt Lake Center
Wed 03:15:29 PM 43.7758 -115.9672 78° East 376 433 14,500 1,645 Climbing Salt Lake Center
Wed 03:16:31 PM 43.8072 -115.8317 72° East 386 444 16,000 1,548 Climbing Salt Lake Center
Wed 03:17:33 PM 43.8394 -115.6658 75° East 398 458 17,700 1,597 Climbing Salt Lake Center
Wed 03:18:35 PM 43.8653 -115.5206 76° East 406 467 19,300 1,488 Climbing Salt Lake Center
Wed 03:19:38 PM 43.8808 -115.3442 83° East 416 479 20,800 1,392 Climbing Salt Lake Center
Wed 03:20:40 PM 43.8933 -115.1869 84° East 427 491 22,200 1,306 Climbing Salt Lake Center
Wed 03:21:42 PM 43.9083 -115.0028 83° East 433 498 23,500 1,113 Climbing Salt Lake Center
Wed 03:22:44 PM 43.9208 -114.8400 84° East 445 512 24,500 1,016 Climbing Salt Lake Center
Wed 03:23:46 PM 43.9361 -114.6439 84° East 457 526 25,600 1,016 Climbing Salt Lake Center
Wed 03:24:48 PM 43.9486 -114.4731 84° East 464 534 26,600 1,016 Climbing Salt Lake Center
Wed 03:25:50 PM 43.9633 -114.2717 84° East 471 542 27,700 968 Climbing Salt Lake Center
Wed 03:26:52 PM 43.9750 -114.0947 85° East 480 552 28,600 871 Climbing Salt Lake Center
Wed 03:27:54 PM 43.9900 -113.8847 84° East 489 563 29,500 823 Climbing Salt Lake Center
Wed 03:28:56 PM 44.0014 -113.7036 85° East 492 566 30,300 871 Climbing Salt Lake Center
Wed 03:29:58 PM 44.0142 -113.4903 85° East 496 571 31,300 823 Climbing Salt Lake Center
Wed 03:31:00 PM 44.0267 -113.3058 85° East 498 573 32,000 726 Climbing Salt Lake Center
Wed 03:32:02 PM 44.0208 -113.0892 92° East 503 579 32,800 677 Climbing Salt Lake Center
Wed 03:33:04 PM 43.9997 -112.9017 99° East 511 588 33,400 629 Climbing Salt Lake Center
Wed 03:34:06 PM 43.9831 -112.7153 97° East 509 586 34,100 726 Climbing Salt Lake Center
Wed 03:35:08 PM 43.9639 -112.4964 97° East 512 589 34,900 629 Climbing Salt Lake Center
Wed 03:36:10 PM 43.9464 -112.3072 97° East 515 593 35,400 629 Climbing Salt Lake Center
Wed 03:37:12 PM 43.9283 -112.0867 96° East 518 596 36,200 726 Climbing Salt Lake Center
Wed 03:38:14 PM 43.9489 -111.9011 81° East 514 592 36,900 677 Climbing Salt Lake Center
Wed 03:39:16 PM 43.9772 -111.6867 80° East 511 588 37,600 629 Climbing Salt Lake Center
Wed 03:40:18 PM 44.0006 -111.5039 80° East 507 583 38,200 581 Climbing Salt Lake Center
Wed 03:41:20 PM 44.0264 -111.2925 80° East 502 578 38,800 387 Climbing Salt Lake Center
Wed 03:42:22 PM 44.0481 -111.1136 80° East 496 571 39,000 96 Climbing Salt Lake Center
Wed 03:43:25 PM 44.0711 -110.9017 81° East 498 573 39,000  Level Salt Lake Center
Wed 03:44:27 PM 44.0828 -110.7133 85° East 510 587 39,000  Level Salt Lake Center
Wed 03:45:29 PM 44.0892 -110.4925 88° East 513 590 39,000  Level Salt Lake Center
Wed 03:46:31 PM 44.0883 -110.3036 90° East 512 589 39,000  Level Salt Lake Center
Wed 03:47:33 PM 44.0897 -110.0803 89° East 515 593 39,000  Level Salt Lake Center
Wed 03:48:35 PM 44.0886 -109.8897 90° East 517 595 39,000  Level Salt Lake Center
Wed 03:49:37 PM 44.0842 -109.6683 92° East 515 593 39,000  Level Salt Lake Center
Wed 03:50:39 PM 44.0831 -109.4772 90° East 514 592 39,000  Level Salt Lake Center
Wed 03:51:41 PM 44.0800 -109.2814 91° East 511 588 39,000  Level Salt Lake Center
Wed 03:52:43 PM 44.0761 -109.0458 91° East 510 587 39,000  Level Salt Lake Center
Wed 03:53:45 PM 44.0728 -108.8514 91° East 508 585 39,000  Level Salt Lake Center
Wed 03:54:47 PM 44.0681 -108.6553 92° East 509 586 39,000  Level Salt Lake Center
Wed 03:55:49 PM 44.0639 -108.4597 92° East 510 587 39,000  Level Salt Lake Center
Wed 03:56:51 PM 44.0589 -108.2625 92° East 512 589 39,000  Level Salt Lake Center
Wed 03:57:53 PM 44.0531 -108.0644 92° East 515 593 39,000  Level Salt Lake Center
Wed 03:58:55 PM 44.0475 -107.8303 92° East 511 588 39,000  Level Salt Lake Center
Wed 03:59:57 PM 44.0408 -107.6339 93° East 512 589 39,000  Level Salt Lake Center
Wed 04:00:59 PM 44.0350 -107.4383 92° East 512 589 39,000  Level Salt Lake Center
Wed 04:02:01 PM 44.0292 -107.2408 92° East 513 590 39,000  Level Salt Lake Center
Wed 04:03:03 PM 44.0228 -107.0444 93° East 512 589 39,000  Level Salt Lake Center
Wed 04:04:05 PM 44.0142 -106.8086 93° East 514 592 39,000  Level Salt Lake Center
Wed 04:05:07 PM 44.0072 -106.6108 93° East 514 592 39,000  Level Salt Lake Center
Wed 04:06:09 PM 43.9986 -106.4133 93° East 514 592 39,000  Level Salt Lake Center
Wed 04:07:11 PM 44.0011 -106.2169 89° East 512 589 39,000  Level Salt Lake Center
Wed 04:08:14 PM 44.0061 -105.9894 88° East 515 593 39,000  Level Salt Lake Center
Wed 04:09:16 PM 44.0069 -105.8031 90° East 509 586 39,000  Level Salt Lake Center
Wed 04:10:18 PM 44.0044 -105.5883 91° East 502 578 39,000  Level Salt Lake Center
Wed 04:11:20 PM 44.0050 -105.3986 90° East 510 587 39,000  Level Salt Lake Center
Wed 04:12:22 PM 44.0044 -105.2119 90° East 507 583 39,000  Level Salt Lake Center
Wed 04:13:24 PM 44.0042 -104.9925 90° East 506 582 39,000  Level Salt Lake Center
Wed 04:14:26 PM 44.0025 -104.8039 91° East 509 586 39,000  Level Salt Lake Center
Wed 04:15:02 PM 44.0025 -104.7108 90° East 507 583 39,000  Level Denver Center
Wed 04:16:04 PM 43.9997 -104.4600 91° East 508 585 39,000  Level Denver Center
Wed 04:17:06 PM 43.9975 -104.2731 91° East 507 583 39,000  Level Denver Center
Wed 04:18:08 PM 43.9953 -104.0558 91° East 505 581 39,000  Level Denver Center
Wed 04:19:10 PM 43.9919 -103.8675 91° East 508 585 39,000  Level Denver Center
Wed 04:20:12 PM 43.9897 -103.6783 91° East 513 590 39,000  Level Denver Center
Wed 04:21:14 PM 43.9856 -103.4594 91° East 510 587 39,000  Level Denver Center
Wed 04:22:16 PM 43.9825 -103.2728 91° East 506 582 39,000  Level Denver Center
Wed 04:23:18 PM 43.9797 -103.0550 91° East 505 581 39,000  Level Denver Center
Wed 04:24:19 PM 43.9750 -102.8678 92° East 506 582 39,000  Level Denver Center
Wed 04:25:21 PM 43.9667 -102.6603 93° East 508 585 39,000  Level Denver Center
Wed 04:26:23 PM 43.9592 -102.4647 93° East 508 585 39,000  Level Denver Center
Wed 04:27:25 PM 43.9542 -102.2711 92° East 506 582 39,000  Level Denver Center
Wed 04:28:27 PM 43.9458 -102.0772 93° East 506 582 39,000  Level Denver Center
Wed 04:29:29 PM 43.9381 -101.8839 93° East 505 581 39,000  Level Denver Center
Wed 04:30:31 PM 43.9300 -101.6539 93° East 500 575 39,000  Level Denver Center
Wed 04:31:32 PM 43.9247 -101.4653 92° East 498 573 39,000  Level Denver Center
Wed 04:32:39 PM 43.9183 -101.2747 93° East 499 574 39,000  Level Minneapolis Center
Wed 04:33:41 PM 43.9075 -101.0422 94° East 502 578 39,000  Level Minneapolis Center
Wed 04:34:43 PM 43.9011 -100.8500 93° East 503 579 39,000  Level Minneapolis Center
Wed 04:35:45 PM 43.9356 -100.6683 75° East 498 573 39,000  Level Minneapolis Center
Wed 04:36:47 PM 44.0272 -100.5436 44° Northeast 471 542 39,000  Level Minneapolis Center
Wed 04:37:50 PM 44.1247 -100.4308 40° Northeast 458 527 39,000  Level Minneapolis Center
Wed 04:38:52 PM 44.2208 -100.3139 41° Northeast 459 528 39,000  Level Minneapolis Center
Wed 04:39:54 PM 44.3325 -100.1717 42° Northeast 456 525 39,000  Level Minneapolis Center
Wed 04:40:56 PM 44.4256 -100.0544 42° Northeast 453 521 39,000  Level Minneapolis Center
Wed 04:41:58 PM 44.5167 -99.9303 44° Northeast 457 526 39,000  Level Minneapolis Center
Wed 04:43:00 PM 44.5678 -99.7589 67° East 481 554 39,000  Level Minneapolis Center
Wed 04:44:02 PM 44.5653 -99.5636 91° East 504 580 39,000  Level Minneapolis Center
Wed 04:45:04 PM 44.5336 -99.3300 101° East 512 589 39,000  Level Minneapolis Center
Wed 04:46:06 PM 44.5058 -99.1328 101° East 516 594 39,000  Level Minneapolis Center
Wed 04:47:08 PM 44.4789 -98.9358 101° East 517 595 39,000  Level Minneapolis Center
Wed 04:48:10 PM 44.4514 -98.7381 101° East 519 597 39,000  Level Minneapolis Center
Wed 04:49:12 PM 44.4222 -98.5408 102° East 520 598 39,000  Level Minneapolis Center
Wed 04:50:15 PM 44.3903 -98.3283 102° East 519 597 39,000  Level Minneapolis Center
Wed 04:51:17 PM 44.3600 -98.1319 102° East 518 596 39,000  Level Minneapolis Center
Wed 04:52:19 PM 44.3319 -97.9392 101° East 512 589 39,000  Level Minneapolis Center
Wed 04:53:21 PM 44.2958 -97.7064 102° East 512 589 39,000  Level Minneapolis Center
Wed 04:54:35 PM 44.2600 -97.4742 102° East 513 590 39,000  Level Minneapolis Center
Wed 04:55:37 PM 44.2306 -97.2803 102° East 514 592 39,000  Level Minneapolis Center
Wed 04:56:51 PM 44.1978 -97.0869 103° East 514 592 39,000  Level Minneapolis Center
Wed 04:57:54 PM 44.1606 -96.8553 103° East 514 592 39,000  Level Minneapolis Center
Wed 04:58:57 PM 44.1228 -96.6233 103° East 516 594 39,000  Level Minneapolis Center
Wed 05:00:00 PM 44.0802 -96.4377 102° East  Level FlightAware Approximate
Wed 05:01:01 PM 44.0594 -96.2411 102° East 520 598 39,000  Level Minneapolis Center
Wed 05:02:03 PM 44.0269 -96.0500 103° East 524 603 39,000  Level Minneapolis Center
Wed 05:03:05 PM 43.9894 -95.8211 103° East 515 593 39,000  Level Minneapolis Center
Wed 05:04:07 PM 43.9553 -95.6294 104° East 514 592 39,000  Level Minneapolis Center
Wed 05:05:09 PM 43.9225 -95.4375 103° East 515 593 39,000  Level Minneapolis Center
Wed 05:06:11 PM 43.8875 -95.2456 104° East 516 594 39,000  Level Minneapolis Center
Wed 05:07:13 PM 43.8528 -95.0544 104° East 514 592 39,000  Level Minneapolis Center
Wed 05:08:15 PM 43.8119 -94.8253 104° East 513 590 39,000  Level Minneapolis Center
Wed 05:09:17 PM 43.7756 -94.6347 105° East 513 590 39,000  Level Minneapolis Center
Wed 05:10:19 PM 43.7414 -94.4439 104° East 512 589 39,000  Level Minneapolis Center
Wed 05:11:21 PM 43.7050 -94.2450 104° East 512 589 39,000  Level Minneapolis Center
Wed 05:12:24 PM 43.6681 -94.0569 105° East 511 588 39,000  Level Minneapolis Center
Wed 05:13:26 PM 43.6328 -93.8675 104° East 513 590 39,000  Level Minneapolis Center
Wed 05:14:28 PM 43.5964 -93.6786 105° East 512 589 39,000  Level Minneapolis Center
Wed 05:15:30 PM 43.5522 -93.4536 105° East 512 589 39,000  Level Minneapolis Center
Wed 05:16:32 PM 43.5150 -93.2667 105° East 512 589 39,000  Level Minneapolis Center
Wed 05:17:34 PM 43.4772 -93.0794 105° East 512 589 39,000 -532 Level Minneapolis Center
Wed 05:18:36 PM 43.4392 -92.8906 105° East 514 592 37,900 -1,161 Descending Minneapolis Center
Wed 05:19:38 PM 43.4014 -92.7028 105° East 515 593 36,600 -1,210 Descending Minneapolis Center
Wed 05:20:40 PM 43.3631 -92.5131 105° East 517 595 35,400 -1,306 Descending Minneapolis Center
Wed 05:21:42 PM 43.3147 -92.2744 105° East 532 612 33,900 -1,306 Descending Minneapolis Center
Wed 05:22:44 PM 43.2756 -92.0833 106° East 526 605 32,700 -1,016 Descending Minneapolis Center
Wed 05:23:46 PM 43.2372 -91.8953 106° East 518 596 31,800 -816 Descending Minneapolis Center
Wed 05:24:49 PM 43.1975 -91.7097 106° East 517 595 31,000 -384 Descending Minneapolis Center
Wed 05:25:51 PM 43.1419 -91.5269 113° Southeast 522 601 31,000  Level Minneapolis Center
Wed 05:26:53 PM 43.0661 -91.3119 116° Southeast 522 601 31,000  Level Minneapolis Center
Wed 05:27:42 PM 43.0158 -91.1692 116° Southeast 523 602 31,000  Level Chicago Center
Wed 05:28:44 PM 42.9536 -90.9925 116° Southeast 520 598 31,000 -48 Level Chicago Center
Wed 05:29:46 PM 42.8931 -90.8164 115° Southeast 515 593 30,900 -677 Descending Chicago Center
Wed 05:30:48 PM 42.8322 -90.6428 115° Southeast 511 588 29,600 -1,306 Descending Chicago Center
Wed 05:31:50 PM 42.7703 -90.4744 117° Southeast 502 578 28,200 -1,258 Descending Chicago Center
Wed 05:32:52 PM 42.7131 -90.3119 116° Southeast 483 556 27,000 -1,258 Descending Chicago Center
Wed 05:33:54 PM 42.6444 -90.1242 116° Southeast 467 537 25,600 -1,161 Descending Chicago Center
Wed 05:34:56 PM 42.5933 -89.9653 114° Southeast 466 536 24,600 -1,355 Descending Chicago Center
Wed 05:35:58 PM 42.5675 -89.7789 101° East 472 543 22,800 -1,645 Descending Chicago Center
Wed 05:37:00 PM 42.5417 -89.6047 101° East 474 545 21,200 -1,500 Descending Chicago Center
Wed 05:38:02 PM 42.5172 -89.4358 101° East 463 533 19,700 -1,452 Descending Chicago Center
Wed 05:39:04 PM 42.4933 -89.2708 101° East 450 518 18,200 -1,597 Descending Chicago Center
Wed 05:40:06 PM 42.4642 -89.0806 102° East 445 512 16,400 -1,790 Descending Chicago Center
Wed 05:41:08 PM 42.4400 -88.9261 102° East 426 490 14,500 -1,790 Descending Chicago Center
Wed 05:42:10 PM 42.4178 -88.7764 101° East 411 473 12,700 -1,645 Descending Chicago Center
Wed 05:43:12 PM 42.3956 -88.6353 102° East 391 450 11,100 -1,258 Descending Chicago Center
Wed 05:44:14 PM 42.3725 -88.4983 103° East 378 435 10,100 -532 Descending Chicago Center
Wed 05:45:16 PM 42.3281 -88.3725 116° Southeast 373 429 10,000 -48 Descending Chicago Center
Wed 05:46:18 PM 42.2508 -88.2419 129° Southeast 372 428 10,000 -242 Level Chicago Center
Wed 05:47:20 PM 42.1922 -88.1436 129° Southeast 339 390 9,500 -1,016 Descending Chicago Center
Wed 05:48:22 PM 42.1447 -88.0600 127° Southeast 299 344 7,900 -1,210 Descending Chicago Center
Wed 05:49:24 PM 42.1231 -87.9556 106° East 291 335 7,000 -551 Descending Chicago Center
Wed 05:50:00 PM 42.1167 -87.9000 99° East 252 290 7,000  Level Chicago TRACON
Wed 05:51:00 PM 42.1000 -87.8167 105° East 229 264 7,000 -850 Level Chicago TRACON
Wed 05:52:00 PM 42.0833 -87.7333 105° East 220 253 5,300 -1,800 Descending Chicago TRACON
Wed 05:52:30 PM 42.0664 -87.7053 129° Southeast 227 261 4,300 -2,000 Descending Chicago Center

Login

Don't have an account? Register now (free) for customized features, flight alerts, and more!